Погода Паракатуна 2 недели

Минас-Жерайс, Бразилия

17 - 30 июня
  • 17июня
    Сегодня
    +14°
    +28°
    Ясно и безоблачно
    ВремяПогодаТемператураВлажностьДавлениеВетер, м/сВероятность осадков
    00:00Ясно и безоблачно+19°C57 %705 мм2.2 м/с5 %
    03:00Ясно и безоблачно+16°C66 %704 мм1.6 м/с5 %
    06:00Ясно и безоблачно+15°C78 %704 мм1.5 м/с5 %
    09:00Ясно и безоблачно+20°C53 %706 мм1.7 м/с5 %
    12:00Ясно и безоблачно+25°C42 %706 мм2.8 м/с5 %
    15:00Ясно и безоблачно+28°C37 %705 мм1.9 м/с5 %
    18:00Ясно и безоблачно+22°C48 %704 мм1.9 м/с5 %
    21:00Ясно и безоблачно+22°C55 %705 мм1.7 м/с5 %
  • 18июня
    Вторник
    +15°
    +30°
    Ясно и безоблачно
    ВремяПогодаТемператураВлажностьДавлениеВетер, м/сВероятность осадков
    00:00Ясно и безоблачно+19°C59 %704 мм0.9 м/с5 %
    03:00Ясно и безоблачно+15°C73 %703 мм2.4 м/с5 %
    06:00Ясно и безоблачно+18°C62 %704 мм0.7 м/с5 %
    09:00Ясно и безоблачно+21°C51 %706 мм1.4 м/с5 %
    12:00Ясно и безоблачно+25°C43 %705 мм4.3 м/с5 %
    15:00Ясно и безоблачно+29°C39 %704 мм2.6 м/с5 %
    18:00Ясно и безоблачно+24°C50 %703 мм1.9 м/с5 %
    21:00Ясно и безоблачно+24°C57 %704 мм2.3 м/с5 %
  • 19июня
    Среда
    +15°
    +30°
    Ясно и безоблачно
    ВремяПогодаТемператураВлажностьДавлениеВетер, м/сВероятность осадков
    00:00Ясно и безоблачно+20°C59 %704 мм1.5 м/с5 %
    03:00Ясно и безоблачно+16°C77 %703 мм0.9 м/с5 %
    06:00Ясно и безоблачно+17°C72 %704 мм0.7 м/с5 %
    09:00Ясно и безоблачно+21°C52 %706 мм0.7 м/с5 %
    12:00Ясно и безоблачно+26°C35 %706 мм3.1 м/с5 %
    15:00Ясно и безоблачно+30°C34 %705 мм2.7 м/с5 %
    18:00Ясно и безоблачно+24°C44 %704 мм1.9 м/с5 %
    21:00Ясно и безоблачно+24°C49 %705 мм1.8 м/с5 %
  • 20июня
    Четверг
    +15°
    +30°
    Ясно и безоблачно
    ВремяПогодаТемператураВлажностьДавлениеВетер, м/сВероятность осадков
    00:00Ясно и безоблачно+20°C55 %704 мм0.8 м/с5 %
    03:00Ясно и безоблачно+19°C58 %704 мм1.7 м/с5 %
    06:00Ясно и безоблачно+16°C70 %704 мм2.1 м/с5 %
    09:00Ясно и безоблачно+22°C50 %707 мм1.6 м/с5 %
    12:00Ясно и безоблачно+26°C38 %706 мм3.4 м/с4 %
    15:00Ясно и безоблачно+30°C34 %705 мм2.8 м/с5 %
    18:00Ясно и безоблачно+23°C47 %704 мм2.0 м/с5 %
    21:00Ясно и безоблачно+26°C44 %705 мм0.6 м/с5 %
  • 21июня
    Пятница
    +17°
    +31°
    Практически безоблачно
    ВремяПогодаТемператураВлажностьДавлениеВетер, м/сВероятность осадков
    00:00Ясно и безоблачно+21°C50 %705 мм1.3 м/с5 %
    03:00Ясно и безоблачно+18°C57 %704 мм1.6 м/с5 %
    06:00Ясно и безоблачно+16°C66 %704 мм2.2 м/с5 %
    09:00Ясно и безоблачно+22°C51 %707 мм2.2 м/с5 %
    12:00Практически безоблачно+26°C48 %706 мм4.6 м/с5 %
    15:00Практически безоблачно+31°C39 %705 мм3.5 м/с5 %
    18:00Небольшая облачность+26°C46 %704 мм2.0 м/с5 %
    21:00Практически безоблачно+24°C62 %705 мм1.5 м/с5 %
Мы используем cookies
Соглашаюсь